LEAB

Albacete-Los Llanos Airport

Albacete, Spain
TAF LEAB 140200Z 1403/1412 30020KT 9999 FEW025 BKN040 TEMPO 1403/1412 33020G35KT
Issued Valid From Valid To
Dec-14 @ 02:00 UTC
(an hour ago)
Dec-14 @ 03:00 UTC
(4 minutes ago)
Dec-14 @ 12:00 UTC
(in 9 hours)
Dec-14 @ 03:00 to Dec-14 @ 12:00
TAF LEAB 140200Z 1403/1412 30020KT 9999 FEW025 BKN040
Wind Visibility Clouds
300° at 20 knots 10,000+ meters
  • Few at 2,500' AGL
  • Broken at 4,000' AGL
Temporary Dec-14 @ 03:00 to Dec-14 @ 12:00
TEMPO 1403/1412 33020G35KT
Wind
330° at 20 knots
 Gusting to 35 knots
TAF LEAB 140200Z 1403/1412 30020KT 9999 FEW025 BKN040 TEMPO 1403/1412 33020G35KT
Issued Dec-14 @ 02:00 UTC
(an hour ago)
Valid From Dec-14 @ 03:00 UTC
(4 minutes ago)
Valid To Dec-14 @ 12:00 UTC
(in 9 hours)
Dec-14 @ 03:00 - Dec-14 @ 12:00
Wind Visibility
300° at 20 knots 10,000+ meters
Clouds
  • Few at 2,500' AGL
  • Broken at 4,000' AGL
Temporary Dec-14 @ 03:00 - Dec-14 @ 12:00
Wind
330° at 20 knots
 Gusting to 35 knots